createdAt,value
2024-01-14T00:02:03.757Z,2.35
2024-01-14T00:05:06.844Z,3.55
2024-01-14T00:08:09.039Z,4.90
2024-01-14T00:11:11.278Z,3.63
2024-01-14T00:14:13.492Z,3.70
2024-01-14T00:17:15.754Z,3.42
2024-01-14T00:20:18.065Z,3.45
2024-01-14T00:23:20.428Z,2.63
2024-01-14T00:26:26.049Z,2.80
2024-01-14T00:29:28.272Z,4.63
2024-01-14T00:32:30.785Z,4.20
2024-01-14T00:35:32.973Z,4.30
2024-01-14T00:38:35.180Z,4.87
2024-01-14T00:41:37.487Z,3.10
2024-01-14T00:44:42.409Z,2.42
2024-01-14T00:47:44.637Z,4.03
2024-01-14T00:50:46.940Z,1.98
2024-01-14T00:53:49.245Z,2.37
2024-01-14T00:56:51.608Z,2.87
2024-01-14T00:59:53.864Z,3.22
2024-01-14T01:02:56.247Z,3.38
2024-01-14T01:05:58.512Z,3.45
2024-01-14T01:09:01.510Z,3.23
2024-01-14T01:12:04.001Z,2.53
2024-01-14T01:15:06.909Z,2.17
2024-01-14T01:18:09.267Z,2.95
2024-01-14T01:21:11.618Z,1.92
2024-01-14T01:24:15.907Z,1.60
2024-01-14T01:27:18.273Z,3.23
2024-01-14T01:30:20.598Z,2.35
2024-01-14T01:33:22.966Z,1.38
2024-01-14T01:36:25.249Z,2.42
2024-01-14T01:39:27.668Z,1.80
2024-01-14T01:42:30.104Z,2.30
2024-01-14T01:45:32.676Z,2.70
2024-01-14T01:48:35.212Z,2.53
2024-01-14T01:51:38.741Z,2.65
2024-01-14T01:54:41.308Z,2.30
2024-01-14T01:57:45.455Z,1.93
2024-01-14T02:00:49.577Z,2.83
2024-01-14T02:03:52.132Z,3.10
2024-01-14T02:06:54.756Z,2.38
2024-01-14T02:09:57.274Z,1.10
2024-01-14T02:12:59.748Z,2.50
2024-01-14T02:16:02.093Z,2.55
2024-01-14T02:19:04.754Z,3.53
2024-01-14T02:22:15.465Z,2.08
2024-01-14T02:25:17.682Z,1.97
2024-01-14T02:28:22.000Z,1.90
2024-01-14T02:31:24.314Z,1.52
2024-01-14T02:34:26.781Z,1.65
2024-01-14T02:37:29.040Z,1.90
2024-01-14T02:40:32.726Z,1.90
2024-01-14T02:43:35.091Z,1.17
2024-01-14T02:46:37.451Z,1.77
2024-01-14T02:49:39.835Z,2.17
2024-01-14T02:52:42.398Z,2.35
2024-01-14T02:55:44.636Z,1.73
2024-01-14T02:58:47.181Z,1.40
2024-01-14T03:01:49.644Z,0.95
2024-01-14T03:04:51.861Z,2.45
2024-01-14T03:07:54.070Z,2.63
2024-01-14T03:10:56.247Z,1.70
2024-01-14T03:13:58.472Z,0.87
2024-01-14T03:17:00.964Z,1.25
2024-01-14T03:20:03.725Z,1.40
2024-01-14T03:23:06.275Z,2.28
2024-01-14T03:26:08.474Z,1.60
2024-01-14T03:29:10.782Z,1.20
2024-01-14T03:32:13.066Z,2.30
2024-01-14T03:35:15.348Z,2.10
2024-01-14T03:38:17.572Z,2.05
2024-01-14T03:41:19.821Z,1.70
2024-01-14T03:44:22.567Z,1.83
2024-01-14T03:47:24.850Z,2.17
2024-01-14T03:50:27.166Z,2.00
2024-01-14T03:53:29.481Z,0.98
2024-01-14T03:56:31.687Z,1.57
2024-01-14T03:59:33.866Z,1.90
2024-01-14T04:02:36.109Z,2.05
2024-01-14T04:05:38.430Z,1.05
2024-01-14T04:08:40.664Z,1.48
2024-01-14T04:11:43.386Z,2.70
2024-01-14T04:14:45.788Z,2.60
2024-01-14T04:17:48.005Z,2.05
2024-01-14T04:20:50.279Z,2.42
2024-01-14T04:23:52.703Z,1.60
2024-01-14T04:26:55.358Z,1.73
2024-01-14T04:29:57.614Z,1.30
2024-01-14T04:32:59.950Z,2.22
2024-01-14T04:36:03.130Z,1.60
2024-01-14T04:39:05.544Z,1.55
2024-01-14T04:42:07.778Z,1.83
2024-01-14T04:45:10.105Z,1.80
2024-01-14T04:48:12.710Z,1.83
2024-01-14T04:51:15.315Z,2.83
2024-01-14T04:54:17.553Z,1.85
2024-01-14T04:57:19.770Z,1.83
2024-01-14T05:00:23.218Z,1.47
2024-01-14T05:03:25.553Z,1.38
2024-01-14T05:06:27.970Z,0.85
2024-01-14T05:09:30.436Z,1.90
2024-01-14T05:12:32.764Z,1.33
2024-01-14T05:15:35.108Z,1.77
2024-01-14T05:18:37.519Z,1.08
2024-01-14T05:21:39.965Z,1.65
2024-01-14T05:24:46.153Z,1.55
2024-01-14T05:27:48.443Z,2.50
2024-01-14T05:30:50.779Z,2.03
2024-01-14T05:33:53.234Z,3.28
2024-01-14T05:36:55.675Z,2.63
2024-01-14T05:39:58.289Z,2.78
2024-01-14T05:43:00.608Z,2.77
2024-01-14T05:46:02.889Z,1.87
2024-01-14T05:49:05.510Z,3.08
2024-01-14T05:52:07.902Z,2.70
2024-01-14T05:55:10.126Z,2.00
2024-01-14T05:58:12.406Z,3.83
2024-01-14T06:01:15.791Z,2.00
2024-01-14T06:04:18.036Z,2.10
2024-01-14T06:07:20.648Z,2.55
2024-01-14T06:10:22.948Z,2.03
2024-01-14T06:13:25.161Z,2.13
2024-01-14T06:16:27.435Z,2.53
2024-01-14T06:19:30.283Z,2.83
2024-01-14T06:22:32.558Z,3.55
2024-01-14T06:25:34.776Z,2.60
2024-01-14T06:28:37.048Z,2.80
2024-01-14T06:31:39.761Z,2.73
2024-01-14T06:34:42.171Z,3.25
2024-01-14T06:37:44.472Z,3.17
2024-01-14T06:40:55.489Z,4.28
2024-01-14T06:44:05.308Z,3.07
2024-01-14T06:47:07.523Z,2.93
2024-01-14T06:50:14.248Z,2.63
2024-01-14T06:53:17.727Z,2.30
2024-01-14T06:56:20.029Z,2.80
2024-01-14T06:59:23.100Z,3.37
2024-01-14T07:02:25.473Z,3.37
2024-01-14T07:05:27.757Z,3.15
2024-01-14T07:08:30.060Z,4.45
2024-01-14T07:11:32.418Z,1.95
2024-01-14T07:14:34.752Z,2.90
2024-01-14T07:17:54.156Z,4.87
2024-01-14T07:20:59.117Z,3.05
2024-01-14T07:24:01.433Z,4.25
2024-01-14T07:27:03.919Z,3.38
2024-01-14T07:30:06.876Z,3.87
2024-01-14T07:33:09.352Z,4.17
2024-01-14T07:36:11.694Z,2.60
2024-01-14T07:39:14.027Z,3.88
2024-01-14T07:42:17.387Z,3.95
2024-01-14T07:45:19.754Z,4.53
2024-01-14T07:48:22.139Z,4.30
2024-01-14T07:51:24.478Z,3.90
2024-01-14T07:54:27.156Z,3.45
2024-01-14T07:57:29.585Z,2.63
2024-01-14T08:00:32.290Z,5.97
2024-01-14T08:03:35.914Z,5.33
2024-01-14T08:06:38.298Z,4.70
2024-01-14T08:09:40.660Z,4.65
2024-01-14T08:12:43.224Z,4.15
2024-01-14T08:15:56.478Z,1.47
2024-01-14T08:19:04.613Z,3.67
2024-01-14T08:22:07.001Z,5.20
2024-01-14T08:25:09.839Z,5.55
2024-01-14T08:28:12.625Z,5.07
2024-01-14T08:31:15.075Z,3.97
2024-01-14T08:34:17.559Z,3.63
2024-01-14T08:37:19.843Z,3.95
2024-01-14T08:40:22.070Z,3.75
2024-01-14T08:43:24.329Z,4.43
2024-01-14T08:46:27.253Z,5.30
2024-01-14T08:49:31.436Z,3.77
2024-01-14T08:52:34.507Z,4.68
2024-01-14T08:55:36.745Z,6.75
2024-01-14T08:58:38.964Z,6.03
2024-01-14T09:01:41.366Z,4.03
2024-01-14T09:04:43.711Z,3.90
2024-01-14T09:07:45.889Z,3.58
2024-01-14T09:10:50.524Z,2.92
2024-01-14T09:13:53.004Z,2.40
2024-01-14T09:16:55.215Z,3.13
2024-01-14T09:19:57.672Z,3.33
2024-01-14T09:23:00.032Z,3.08
2024-01-14T09:26:02.381Z,2.15
2024-01-14T09:29:04.611Z,2.53
2024-01-14T09:32:06.978Z,2.33
2024-01-14T09:35:09.933Z,1.87
2024-01-14T09:38:12.834Z,3.33
2024-01-14T09:41:26.586Z,2.55
2024-01-14T09:44:29.951Z,3.05
2024-01-14T09:47:36.282Z,2.40
2024-01-14T09:50:38.539Z,3.57
2024-01-14T09:53:42.046Z,3.38
2024-01-14T09:56:45.300Z,3.25
2024-01-14T09:59:48.227Z,2.70
2024-01-14T10:02:50.593Z,1.70
2024-01-14T10:05:53.124Z,1.93
2024-01-14T10:08:58.431Z,2.35
2024-01-14T10:12:01.097Z,1.92
2024-01-14T10:15:04.181Z,2.35
2024-01-14T10:18:06.582Z,1.57
2024-01-14T10:21:10.505Z,1.03
2024-01-14T10:24:12.842Z,2.88
2024-01-14T10:27:33.590Z,1.73
2024-01-14T10:30:39.397Z,1.67
2024-01-14T10:33:41.922Z,1.77
2024-01-14T10:36:44.320Z,2.73
2024-01-14T10:39:46.547Z,1.73
2024-01-14T10:42:48.868Z,1.65
2024-01-14T10:45:51.301Z,0.90
2024-01-14T10:48:58.260Z,1.63
2024-01-14T10:52:14.220Z,1.63
2024-01-14T10:55:31.633Z,2.63
2024-01-14T10:58:37.729Z,1.48
2024-01-14T11:01:45.268Z,1.92
2024-01-14T11:04:48.954Z,1.87
2024-01-14T11:07:51.443Z,2.10
2024-01-14T11:10:54.496Z,1.58
2024-01-14T11:14:01.081Z,1.58
2024-01-14T11:17:07.537Z,1.88
2024-01-14T11:20:14.132Z,1.20
2024-01-14T11:23:16.827Z,1.43
2024-01-14T11:26:19.166Z,1.05
2024-01-14T11:29:34.207Z,1.50
2024-01-14T11:32:36.553Z,1.25
2024-01-14T11:35:38.851Z,1.53
2024-01-14T11:38:47.062Z,2.20
2024-01-14T11:41:49.267Z,1.58
2024-01-14T11:44:51.511Z,0.52
2024-01-14T11:47:54.894Z,1.08
2024-01-14T11:50:57.487Z,1.53
2024-01-14T11:54:01.598Z,1.80
2024-01-14T11:57:21.938Z,1.40
2024-01-14T12:00:25.597Z,1.27
2024-01-14T12:03:27.985Z,1.33
2024-01-14T12:06:38.617Z,1.70
2024-01-14T12:09:41.117Z,1.40
2024-01-14T12:12:43.919Z,1.40
2024-01-14T12:15:55.100Z,1.15
2024-01-14T12:19:01.791Z,0.68
2024-01-14T12:22:04.259Z,0.97
2024-01-14T12:25:07.139Z,0.90
2024-01-14T12:28:09.603Z,0.73
2024-01-14T12:31:18.776Z,1.50
2024-01-14T12:34:23.198Z,0.40
2024-01-14T12:37:25.585Z,1.43
2024-01-14T12:40:28.609Z,0.67
2024-01-14T12:43:30.924Z,1.13
2024-01-14T12:46:40.892Z,1.08
2024-01-14T12:49:50.867Z,0.68
2024-01-14T12:53:00.258Z,0.80
2024-01-14T12:56:12.257Z,0.80
2024-01-14T12:59:14.541Z,1.35
2024-01-14T13:02:16.791Z,1.23
2024-01-14T13:05:19.153Z,0.85
2024-01-14T13:08:21.488Z,1.27
2024-01-14T13:11:23.729Z,0.83
2024-01-14T13:14:30.196Z,0.82
2024-01-14T13:17:33.338Z,1.35
2024-01-14T13:20:35.572Z,0.90
2024-01-14T13:23:37.845Z,1.20
2024-01-14T13:26:42.002Z,1.83
2024-01-14T13:29:44.309Z,2.10
2024-01-14T13:32:48.205Z,1.98
2024-01-14T13:35:50.576Z,3.45
2024-01-14T13:38:52.813Z,2.77
2024-01-14T13:41:55.065Z,4.03
2024-01-14T13:44:57.645Z,2.05
2024-01-14T13:48:00.080Z,3.35
2024-01-14T13:51:02.628Z,2.22
2024-01-14T13:54:12.261Z,3.47
2024-01-14T13:57:16.539Z,1.70
2024-01-14T14:00:19.021Z,2.13
2024-01-14T14:03:21.469Z,2.33
2024-01-14T14:06:23.771Z,1.50
2024-01-14T14:09:26.259Z,1.30
2024-01-14T14:12:28.735Z,2.10
2024-01-14T14:15:31.165Z,1.73
2024-01-14T14:18:33.642Z,2.22
2024-01-14T14:21:50.358Z,2.30
2024-01-14T14:24:58.490Z,1.23
2024-01-14T14:28:00.749Z,1.30
2024-01-14T14:31:03.708Z,1.60
2024-01-14T14:34:06.676Z,2.05
2024-01-14T14:37:09.358Z,2.30
2024-01-14T14:40:12.323Z,1.93
2024-01-14T14:43:14.522Z,2.03
2024-01-14T14:46:16.905Z,2.03
2024-01-14T14:49:19.398Z,1.67
2024-01-14T14:52:21.778Z,2.55
2024-01-14T14:55:24.072Z,1.80
2024-01-14T14:58:26.286Z,2.33
2024-01-14T15:01:36.980Z,2.25
2024-01-14T15:04:45.983Z,2.92
2024-01-14T15:07:49.179Z,2.05
2024-01-14T15:10:51.443Z,3.00
2024-01-14T15:13:53.812Z,1.40
2024-01-14T15:16:56.165Z,2.03
2024-01-14T15:19:58.574Z,2.88
2024-01-14T15:23:01.020Z,2.80
2024-01-14T15:26:05.657Z,2.00
2024-01-14T15:29:08.144Z,3.07
2024-01-14T15:32:10.577Z,2.58
2024-01-14T15:35:13.386Z,3.45
2024-01-14T15:38:15.927Z,3.20
2024-01-14T15:41:18.204Z,3.70
2024-01-14T15:44:20.457Z,3.90
2024-01-14T15:47:22.749Z,2.63
2024-01-14T15:50:25.021Z,2.70
2024-01-14T15:53:27.420Z,3.67
2024-01-14T15:56:29.720Z,3.43
2024-01-14T15:59:31.913Z,3.63
2024-01-14T16:02:34.132Z,3.92
2024-01-14T16:05:36.529Z,3.47
2024-01-14T16:08:38.754Z,3.63
2024-01-14T16:11:41.356Z,4.43
2024-01-14T16:14:43.635Z,5.50
2024-01-14T16:17:48.391Z,4.63
2024-01-14T16:20:59.223Z,6.78
2024-01-14T16:24:05.726Z,6.15
2024-01-14T16:27:08.072Z,7.13
2024-01-14T16:30:10.896Z,5.77
2024-01-14T16:33:13.604Z,6.15
2024-01-14T16:36:17.170Z,6.50
2024-01-14T16:39:20.170Z,4.63
2024-01-14T16:42:22.519Z,5.97
2024-01-14T16:45:25.415Z,5.87
2024-01-14T16:48:28.046Z,6.25
2024-01-14T16:51:30.589Z,4.85
2024-01-14T16:54:33.355Z,4.90
2024-01-14T16:57:35.667Z,4.93
2024-01-14T17:00:38.269Z,5.97
2024-01-14T17:03:40.695Z,5.15
2024-01-14T17:06:43.210Z,6.07
2024-01-14T17:09:45.638Z,5.07
2024-01-14T17:12:47.963Z,5.10
2024-01-14T17:15:57.269Z,7.50
2024-01-14T17:19:07.990Z,4.93
2024-01-14T17:22:10.295Z,6.97
2024-01-14T17:25:12.629Z,6.55
2024-01-14T17:28:14.859Z,6.57
2024-01-14T17:31:18.272Z,5.10
2024-01-14T17:34:21.140Z,5.65
2024-01-14T17:37:23.422Z,6.40
2024-01-14T17:40:25.777Z,7.03
2024-01-14T17:43:29.758Z,6.30
2024-01-14T17:46:32.099Z,7.60
2024-01-14T17:49:34.532Z,7.13
2024-01-14T17:52:39.345Z,3.88
2024-01-14T17:55:41.638Z,5.53
2024-01-14T17:58:44.503Z,4.90
2024-01-14T18:01:46.890Z,5.83
2024-01-14T18:04:49.258Z,6.72
2024-01-14T18:07:51.696Z,6.22
2024-01-14T18:10:54.034Z,5.07
2024-01-14T18:13:56.305Z,4.33
2024-01-14T18:16:58.624Z,5.00
2024-01-14T18:20:01.096Z,5.45
2024-01-14T18:23:11.804Z,5.30
2024-01-14T18:26:16.094Z,4.00
2024-01-14T18:29:19.522Z,4.57
2024-01-14T18:32:21.745Z,4.37
2024-01-14T18:35:24.340Z,5.40
2024-01-14T18:38:28.972Z,4.88
2024-01-14T18:41:31.474Z,5.15
2024-01-14T18:44:33.709Z,5.77
2024-01-14T18:47:36.226Z,6.57
2024-01-14T18:50:38.524Z,6.65
2024-01-14T18:53:40.832Z,5.82
2024-01-14T18:56:43.308Z,7.68
2024-01-14T18:59:45.711Z,5.97
2024-01-14T19:02:48.991Z,5.07
2024-01-14T19:05:52.033Z,7.97
2024-01-14T19:08:54.830Z,4.00
2024-01-14T19:11:57.471Z,5.13
2024-01-14T19:15:00.161Z,5.93
2024-01-14T19:18:02.938Z,5.90
2024-01-14T19:21:06.292Z,4.97
2024-01-14T19:24:08.855Z,5.50
2024-01-14T19:27:11.438Z,5.60
2024-01-14T19:30:14.295Z,5.57
2024-01-14T19:33:20.022Z,5.47
2024-01-14T19:36:22.682Z,5.68
2024-01-14T19:39:27.123Z,5.88
2024-01-14T19:42:30.664Z,4.80
2024-01-14T19:45:33.177Z,6.70
2024-01-14T19:48:36.053Z,6.90
2024-01-14T19:51:38.717Z,5.63
2024-01-14T19:54:41.491Z,6.55
2024-01-14T19:57:44.108Z,6.18
2024-01-14T20:00:46.736Z,6.13
2024-01-14T20:03:50.499Z,5.70
2024-01-14T20:06:52.970Z,5.55
2024-01-14T20:09:56.227Z,9.60
2024-01-14T20:12:58.908Z,6.22
2024-01-14T20:16:03.490Z,5.40
2024-01-14T20:19:06.955Z,9.30
2024-01-14T20:22:09.553Z,6.72
2024-01-14T20:25:12.757Z,8.70
2024-01-14T20:28:15.537Z,5.47
2024-01-14T20:31:17.966Z,5.33
2024-01-14T20:34:24.835Z,4.73
2024-01-14T20:37:27.229Z,5.47
2024-01-14T20:40:29.766Z,6.38
2024-01-14T20:43:32.343Z,9.10
2024-01-14T20:46:34.886Z,6.50
2024-01-14T20:49:41.882Z,7.50
2024-01-14T20:52:44.517Z,5.85
2024-01-14T20:55:47.421Z,4.60
2024-01-14T20:58:49.773Z,6.18
2024-01-14T21:01:52.186Z,7.23
2024-01-14T21:04:56.729Z,7.07
2024-01-14T21:08:01.425Z,5.88
2024-01-14T21:11:03.803Z,7.78
2024-01-14T21:14:06.453Z,5.07
2024-01-14T21:17:08.732Z,4.67
2024-01-14T21:20:11.284Z,5.97
2024-01-14T21:23:13.768Z,4.38
2024-01-14T21:26:15.962Z,4.80
2024-01-14T21:29:18.236Z,4.47
2024-01-14T21:32:20.539Z,3.83
2024-01-14T21:35:22.880Z,5.40
2024-01-14T21:38:25.126Z,4.82
2024-01-14T21:41:27.975Z,2.72
2024-01-14T21:44:30.263Z,4.45
2024-01-14T21:47:32.751Z,4.33
2024-01-14T21:50:35.004Z,3.93
2024-01-14T21:53:37.297Z,2.80
2024-01-14T21:56:39.509Z,3.55
2024-01-14T21:59:41.741Z,2.65
2024-01-14T22:02:44.020Z,4.17
2024-01-14T22:05:46.414Z,4.73
2024-01-14T22:08:48.752Z,6.65
2024-01-14T22:11:51.033Z,2.78
2024-01-14T22:14:53.282Z,4.22
2024-01-14T22:17:55.576Z,3.23
2024-01-14T22:20:57.851Z,4.80
2024-01-14T22:24:00.186Z,4.10
2024-01-14T22:27:02.646Z,4.30
2024-01-14T22:30:05.344Z,3.42
2024-01-14T22:33:07.756Z,5.07
2024-01-14T22:36:12.863Z,4.63
2024-01-14T22:39:15.168Z,4.10
2024-01-14T22:42:17.513Z,5.47
2024-01-14T22:45:19.791Z,4.50
2024-01-14T22:48:22.105Z,5.03
2024-01-14T22:51:24.616Z,5.40
2024-01-14T22:54:27.026Z,4.78
2024-01-14T22:57:29.447Z,5.30
2024-01-14T23:00:34.222Z,4.70
2024-01-14T23:03:36.805Z,3.43
2024-01-14T23:06:39.318Z,3.97
2024-01-14T23:09:41.602Z,3.70
2024-01-14T23:12:43.943Z,6.32
2024-01-14T23:15:46.304Z,4.80
2024-01-14T23:18:48.743Z,5.67
2024-01-14T23:21:51.169Z,4.50
2024-01-14T23:24:53.460Z,5.25
2024-01-14T23:27:55.767Z,4.68
2024-01-14T23:30:58.327Z,4.82
2024-01-14T23:34:00.801Z,6.27
2024-01-14T23:37:03.853Z,4.47
2024-01-14T23:40:06.620Z,4.55
2024-01-14T23:43:09.478Z,5.30
2024-01-14T23:46:11.670Z,6.47
2024-01-14T23:49:13.958Z,3.70
2024-01-14T23:52:16.378Z,6.30
2024-01-14T23:55:18.613Z,4.68
2024-01-14T23:58:20.822Z,5.53
